Terminal Aerodrome Forecast
Issued by NWS King Salmon, AK

Home | Current Version | Previous Version | Text Only | Print | Product List | Glossary On
Versions: 1 2 3 4 5 6 7 8 9 10 11 12 13 14 15 16
000
FTAK31 PANC 271731
TAFAKN
TAF
PAKN 271731Z 2718/2818 VRB03KT P6SM VCFG FEW005
      TEMPO 2718/2719 1/2SM FZFG BKN002
     FM271900 29007KT P6SM FEW050 SCT200
     FM281200 20008KT P6SM OVC025=

USA.gov is the U.S. government's official web portal to all federal, state and local government web resources and services.